Terminal Aerodrome Forecast
Issued by NWS Central Illinois

Home | Current Version | Previous Version | Text Only | Print | Product List | Glossary On
Versions: 1 2 3 4 5 6 7 8 9 10 11 12 13 14 15 16 17 18 19 20 21
000
FTUS43 KILX 150536
TAFSPI
TAF
KSPI 150536Z 1506/1606 24008KT P6SM BKN025
     FM151400 28008KT P6SM BKN035
     FM151800 25012G18KT P6SM SCT200
     FM160000 22008KT P6SM SCT250=

USA.gov is the U.S. government's official web portal to all federal, state and local government web resources and services.